createdAt,value
2018-06-16T00:00:00.937Z,16.00
2018-06-16T00:00:32.150Z,16.35
2018-06-16T00:01:03.328Z,16.00
2018-06-16T00:01:34.544Z,16.50
2018-06-16T00:02:05.748Z,16.23
2018-06-16T00:02:36.928Z,16.37
2018-06-16T00:03:08.188Z,16.65
2018-06-16T00:03:39.417Z,16.87
2018-06-16T00:04:10.625Z,17.07
2018-06-16T00:04:41.801Z,17.25
2018-06-16T00:05:13.022Z,17.25
2018-06-16T00:05:44.188Z,18.07
2018-06-16T00:06:15.401Z,17.15
2018-06-16T00:06:46.584Z,17.85
2018-06-16T00:07:17.757Z,17.50
2018-06-16T00:07:48.989Z,17.27
2018-06-16T00:08:20.172Z,16.57
2018-06-16T00:08:51.377Z,17.95
2018-06-16T00:09:22.560Z,18.57
2018-06-16T00:09:53.748Z,18.00
2018-06-16T00:10:24.916Z,17.65
2018-06-16T00:10:56.989Z,18.32
2018-06-16T00:11:28.165Z,18.45
2018-06-16T00:11:59.386Z,17.12
2018-06-16T00:12:30.624Z,16.55
2018-06-16T00:13:01.813Z,17.52
2018-06-16T00:13:33.005Z,17.48
2018-06-16T00:14:04.277Z,17.82
2018-06-16T00:14:35.457Z,17.30
2018-06-16T00:15:06.629Z,17.23
2018-06-16T00:15:37.844Z,17.67
2018-06-16T00:16:09.025Z,17.85
2018-06-16T00:16:40.252Z,17.32
2018-06-16T00:17:11.496Z,17.20
2018-06-16T00:17:42.685Z,16.45
2018-06-16T00:18:13.949Z,17.45
2018-06-16T00:18:45.184Z,16.48
2018-06-16T00:19:16.368Z,17.37
2018-06-16T00:19:47.591Z,16.55
2018-06-16T00:20:18.766Z,18.30
2018-06-16T00:20:49.997Z,15.85
2018-06-16T00:21:21.185Z,16.75
2018-06-16T00:21:52.355Z,17.40
2018-06-16T00:22:23.532Z,17.42
2018-06-16T00:22:54.702Z,16.30
2018-06-16T00:23:25.962Z,17.15
2018-06-16T00:23:57.145Z,16.37
2018-06-16T00:24:28.323Z,16.60
2018-06-16T00:24:59.577Z,16.00
2018-06-16T00:25:30.819Z,15.18
2018-06-16T00:26:01.998Z,14.90
2018-06-16T00:26:33.253Z,15.58
2018-06-16T00:27:04.549Z,15.30
2018-06-16T00:27:35.725Z,15.90
2018-06-16T00:28:06.936Z,15.13
2018-06-16T00:28:38.113Z,14.63
2018-06-16T00:29:09.289Z,15.08
2018-06-16T00:29:40.527Z,14.38
2018-06-16T00:30:11.688Z,14.75
2018-06-16T00:30:42.917Z,14.75
2018-06-16T00:31:14.109Z,14.65
2018-06-16T00:31:45.377Z,13.35
2018-06-16T00:32:17.148Z,13.25
2018-06-16T00:32:48.390Z,14.13
2018-06-16T00:33:19.575Z,14.20
2018-06-16T00:33:50.752Z,13.65
2018-06-16T00:34:21.928Z,14.75
2018-06-16T00:34:53.213Z,13.38
2018-06-16T00:35:24.390Z,12.82
2018-06-16T00:35:55.607Z,13.05
2018-06-16T00:36:26.789Z,13.58
2018-06-16T00:36:57.968Z,12.47
2018-06-16T00:37:29.202Z,13.60
2018-06-16T00:38:00.439Z,11.90
2018-06-16T00:38:31.616Z,11.75
2018-06-16T00:39:02.853Z,12.37
2018-06-16T00:39:34.085Z,12.95
2018-06-16T00:40:05.307Z,12.35
2018-06-16T00:40:36.531Z,11.88
2018-06-16T00:41:07.709Z,12.53
2018-06-16T00:41:38.884Z,11.50
2018-06-16T00:42:10.097Z,11.73
2018-06-16T00:42:41.309Z,11.88
2018-06-16T00:43:12.484Z,12.15
2018-06-16T00:43:43.716Z,10.85
2018-06-16T00:44:14.989Z,12.40
2018-06-16T00:44:46.168Z,11.48
2018-06-16T00:45:17.407Z,11.68
2018-06-16T00:45:48.665Z,12.30
2018-06-16T00:46:19.848Z,11.75
2018-06-16T00:46:51.074Z,11.30
2018-06-16T00:47:22.250Z,10.60
2018-06-16T00:47:53.432Z,11.00
2018-06-16T00:48:24.654Z,12.03
2018-06-16T00:48:55.830Z,11.15
2018-06-16T00:49:27.004Z,11.55
2018-06-16T00:49:58.168Z,12.05
2018-06-16T00:50:29.408Z,11.18
2018-06-16T00:51:00.638Z,11.10
2018-06-16T00:51:31.853Z,11.20
2018-06-16T00:52:03.048Z,11.08
2018-06-16T00:52:34.232Z,10.10
2018-06-16T00:53:05.408Z,10.00
2018-06-16T00:53:36.685Z,10.20
2018-06-16T00:54:07.861Z,9.65
2018-06-16T00:54:39.123Z,10.40
2018-06-16T00:55:10.312Z,10.10
2018-06-16T00:55:41.540Z,11.00
2018-06-16T00:56:12.713Z,10.63
2018-06-16T00:56:43.938Z,10.80
2018-06-16T00:57:15.169Z,11.97
2018-06-16T00:57:46.353Z,11.05
2018-06-16T00:58:17.603Z,11.35
2018-06-16T00:58:48.836Z,10.70
2018-06-16T00:59:20.062Z,10.72
2018-06-16T00:59:51.290Z,11.22
2018-06-16T01:00:22.464Z,10.85
2018-06-16T01:00:53.633Z,11.05
2018-06-16T01:01:24.804Z,10.88
2018-06-16T01:01:55.980Z,10.88
2018-06-16T01:02:27.165Z,11.57
2018-06-16T01:02:58.347Z,10.65
2018-06-16T01:03:29.580Z,11.48
2018-06-16T01:04:00.869Z,11.97
2018-06-16T01:04:32.112Z,11.53
2018-06-16T01:05:03.305Z,11.35
2018-06-16T01:05:34.508Z,11.20
2018-06-16T01:06:05.686Z,12.10
2018-06-16T01:06:36.934Z,11.53
2018-06-16T01:07:08.127Z,11.35
2018-06-16T01:07:39.322Z,11.78
2018-06-16T01:08:10.504Z,11.35
2018-06-16T01:08:41.742Z,11.22
2018-06-16T01:09:13.015Z,10.88
2018-06-16T01:09:44.209Z,11.12
2018-06-16T01:10:15.386Z,10.60
2018-06-16T01:10:46.571Z,10.30
2018-06-16T01:11:17.744Z,9.88
2018-06-16T01:11:48.988Z,10.10
2018-06-16T01:12:20.172Z,10.98
2018-06-16T01:12:51.394Z,11.57
2018-06-16T01:13:22.577Z,11.05
2018-06-16T01:13:53.755Z,11.50
2018-06-16T01:14:24.952Z,10.82
2018-06-16T01:14:56.167Z,10.88
2018-06-16T01:15:27.412Z,11.55
2018-06-16T01:15:58.598Z,12.03
2018-06-16T01:16:29.772Z,11.22
2018-06-16T01:17:00.951Z,11.73
2018-06-16T01:17:32.120Z,11.40
2018-06-16T01:18:03.294Z,11.30
2018-06-16T01:18:34.460Z,11.48
2018-06-16T01:19:05.640Z,11.83
2018-06-16T01:19:36.848Z,12.78
2018-06-16T01:20:08.069Z,12.15
2018-06-16T01:20:39.296Z,12.73
2018-06-16T01:21:10.476Z,13.13
2018-06-16T01:21:41.653Z,12.70
2018-06-16T01:22:12.817Z,12.68
2018-06-16T01:22:44.044Z,12.60
2018-06-16T01:23:15.232Z,12.07
2018-06-16T01:23:46.396Z,11.78
2018-06-16T01:24:17.561Z,13.03
2018-06-16T01:24:48.800Z,12.68
2018-06-16T01:25:19.965Z,13.45
2018-06-16T01:25:51.163Z,13.35
2018-06-16T01:26:22.381Z,13.18
2018-06-16T01:26:53.552Z,13.13
2018-06-16T01:27:24.732Z,13.88
2018-06-16T01:27:55.896Z,14.25
2018-06-16T01:28:27.084Z,13.90
2018-06-16T01:28:58.276Z,13.15
2018-06-16T01:29:29.497Z,13.20
2018-06-16T01:30:00.723Z,13.18
2018-06-16T01:30:31.890Z,13.78
2018-06-16T01:31:03.130Z,13.40
2018-06-16T01:31:34.312Z,14.28
2018-06-16T01:32:05.476Z,13.05
2018-06-16T01:32:36.701Z,13.62
2018-06-16T01:33:07.884Z,13.80
2018-06-16T01:33:39.117Z,13.75
2018-06-16T01:34:10.372Z,13.58
2018-06-16T01:34:41.544Z,13.80
2018-06-16T01:35:12.761Z,13.80
2018-06-16T01:35:43.938Z,14.83
2018-06-16T01:36:16.296Z,14.13
2018-06-16T01:36:47.464Z,14.83
2018-06-16T01:37:18.629Z,14.63
2018-06-16T01:37:49.801Z,14.28
2018-06-16T01:38:21.013Z,13.85
2018-06-16T01:38:52.217Z,14.90
2018-06-16T01:39:23.396Z,15.00
2018-06-16T01:39:54.633Z,14.30
2018-06-16T01:40:25.862Z,14.75
2018-06-16T01:40:57.058Z,14.50
2018-06-16T01:41:28.292Z,14.53
2018-06-16T01:41:59.504Z,13.98
2018-06-16T01:42:30.704Z,14.30
2018-06-16T01:43:01.883Z,14.38
2018-06-16T01:43:33.056Z,14.07
2018-06-16T01:44:04.249Z,12.03
2018-06-16T01:44:35.466Z,13.50
2018-06-16T01:45:06.653Z,14.30
2018-06-16T01:45:37.877Z,13.53
2018-06-16T01:46:09.062Z,12.28
2018-06-16T01:46:40.231Z,13.05
2018-06-16T01:47:11.458Z,13.60
2018-06-16T01:47:42.628Z,13.70
2018-06-16T01:48:13.800Z,13.88
2018-06-16T01:48:44.978Z,13.25
2018-06-16T01:49:16.208Z,13.20
2018-06-16T01:49:47.417Z,14.23
2018-06-16T01:50:18.585Z,13.60
2018-06-16T01:50:49.820Z,13.58
2018-06-16T01:51:21.000Z,13.93
2018-06-16T01:51:52.199Z,13.60
2018-06-16T01:52:23.416Z,13.85
2018-06-16T01:52:54.592Z,13.58
2018-06-16T01:53:25.766Z,14.40
2018-06-16T01:53:56.985Z,13.45
2018-06-16T01:54:28.170Z,13.53
2018-06-16T01:54:59.712Z,14.07
2018-06-16T01:55:30.893Z,13.65
2018-06-16T01:56:02.068Z,13.93
2018-06-16T01:56:33.248Z,13.88
2018-06-16T01:57:04.424Z,13.20
2018-06-16T01:57:35.666Z,13.38
2018-06-16T01:58:06.862Z,13.28
2018-06-16T01:58:38.040Z,13.58
2018-06-16T01:59:09.257Z,13.15
2018-06-16T01:59:40.474Z,12.73
2018-06-16T02:00:11.716Z,12.82
2018-06-16T02:00:42.877Z,12.63
2018-06-16T02:01:14.040Z,13.05
2018-06-16T02:01:45.212Z,12.63
2018-06-16T02:02:16.446Z,12.53
2018-06-16T02:02:47.681Z,12.58
2018-06-16T02:03:18.916Z,12.58
2018-06-16T02:03:50.153Z,13.03
2018-06-16T02:04:21.381Z,13.00
2018-06-16T02:04:52.575Z,12.78
2018-06-16T02:05:23.752Z,11.88
2018-06-16T02:05:54.983Z,12.07
2018-06-16T02:06:26.216Z,12.25
2018-06-16T02:06:57.416Z,12.65
2018-06-16T02:07:28.576Z,12.20
2018-06-16T02:07:59.763Z,12.58
2018-06-16T02:08:31.036Z,12.10
2018-06-16T02:09:02.265Z,11.40
2018-06-16T02:09:33.501Z,12.65
2018-06-16T02:10:04.688Z,12.43
2018-06-16T02:10:35.965Z,12.30
2018-06-16T02:11:07.155Z,12.93
2018-06-16T02:11:38.378Z,12.47
2018-06-16T02:12:09.559Z,13.60
2018-06-16T02:12:40.737Z,12.50
2018-06-16T02:13:11.910Z,13.00
2018-06-16T02:13:43.175Z,13.93
2018-06-16T02:14:14.370Z,13.98
2018-06-16T02:14:45.623Z,13.18
2018-06-16T02:15:16.800Z,12.78
2018-06-16T02:15:47.970Z,14.07
2018-06-16T02:16:19.142Z,13.70
2018-06-16T02:16:50.313Z,13.13
2018-06-16T02:17:21.550Z,13.35
2018-06-16T02:17:52.781Z,13.03
2018-06-16T02:18:23.962Z,13.00
2018-06-16T02:18:55.211Z,12.63
2018-06-16T02:19:26.376Z,12.95
2018-06-16T02:19:57.602Z,12.90
2018-06-16T02:20:28.833Z,11.70
2018-06-16T02:21:00.065Z,12.45
2018-06-16T02:21:31.243Z,12.40
2018-06-16T02:22:02.452Z,12.53
2018-06-16T02:22:33.725Z,12.63
2018-06-16T02:23:04.917Z,12.98
2018-06-16T02:23:36.155Z,13.18
2018-06-16T02:24:07.377Z,12.60
2018-06-16T02:24:38.556Z,12.78
2018-06-16T02:25:09.744Z,12.90
2018-06-16T02:25:40.965Z,12.60
2018-06-16T02:26:12.147Z,12.82
2018-06-16T02:26:43.320Z,13.00
2018-06-16T02:27:14.573Z,12.85
2018-06-16T02:27:45.802Z,12.80
2018-06-16T02:28:16.968Z,13.05
2018-06-16T02:28:48.194Z,14.00
2018-06-16T02:29:19.411Z,13.90
2018-06-16T02:29:50.609Z,13.98
2018-06-16T02:30:21.829Z,13.20
2018-06-16T02:30:53.058Z,13.50
2018-06-16T02:31:24.293Z,13.45
2018-06-16T02:31:55.472Z,14.20
2018-06-16T02:32:26.761Z,14.13
2018-06-16T02:32:57.991Z,14.50
2018-06-16T02:33:29.223Z,14.25
2018-06-16T02:34:00.401Z,13.60
2018-06-16T02:34:31.633Z,13.70
2018-06-16T02:35:02.825Z,13.93
2018-06-16T02:35:34.046Z,14.65
2018-06-16T02:36:05.228Z,14.20
2018-06-16T02:36:36.464Z,14.15
2018-06-16T02:37:07.699Z,13.30
2018-06-16T02:37:38.928Z,13.78
2018-06-16T02:38:10.105Z,14.15
2018-06-16T02:38:41.269Z,14.05
2018-06-16T02:39:12.502Z,14.53
2018-06-16T02:39:43.692Z,14.28
2018-06-16T02:40:14.856Z,14.05
2018-06-16T02:40:46.025Z,14.10
2018-06-16T02:41:17.249Z,13.98
2018-06-16T02:41:48.481Z,14.13
2018-06-16T02:42:19.658Z,14.20
2018-06-16T02:42:50.892Z,14.40
2018-06-16T02:43:22.125Z,14.75
2018-06-16T02:43:53.321Z,13.98
2018-06-16T02:44:24.556Z,14.85
2018-06-16T02:44:55.786Z,15.15
2018-06-16T02:45:27.004Z,14.23
2018-06-16T02:45:58.177Z,15.03
2018-06-16T02:46:29.357Z,14.10
2018-06-16T02:47:00.530Z,14.28
2018-06-16T02:47:31.717Z,15.28
2018-06-16T02:48:02.948Z,14.25
2018-06-16T02:48:34.189Z,13.93
2018-06-16T02:49:05.382Z,14.40
2018-06-16T02:49:36.558Z,14.53
2018-06-16T02:50:07.772Z,14.95
2018-06-16T02:50:38.977Z,15.00
2018-06-16T02:51:10.144Z,14.13
2018-06-16T02:51:41.430Z,14.23
2018-06-16T02:52:12.595Z,14.05
2018-06-16T02:52:43.777Z,14.28
2018-06-16T02:53:15.047Z,14.47
2018-06-16T02:53:46.233Z,14.33
2018-06-16T02:54:17.449Z,13.70
2018-06-16T02:54:48.644Z,14.00
2018-06-16T02:55:19.882Z,14.53
2018-06-16T02:55:51.076Z,14.13
2018-06-16T02:56:22.250Z,14.93
2018-06-16T02:56:53.456Z,14.58
2018-06-16T02:57:24.682Z,14.55
2018-06-16T02:57:55.873Z,14.28
2018-06-16T02:58:27.056Z,15.20
2018-06-16T02:58:58.236Z,14.90
2018-06-16T02:59:29.414Z,14.95
2018-06-16T03:00:00.586Z,14.70
2018-06-16T03:00:31.819Z,15.08
2018-06-16T03:01:03.009Z,14.05
2018-06-16T03:01:34.289Z,15.10
2018-06-16T03:02:05.477Z,15.28
2018-06-16T03:02:36.648Z,15.50
2018-06-16T03:03:07.828Z,15.30
2018-06-16T03:03:39.033Z,15.15
2018-06-16T03:04:10.206Z,15.23
2018-06-16T03:04:41.433Z,15.13
2018-06-16T03:05:12.646Z,14.68
2018-06-16T03:05:43.812Z,15.05
2018-06-16T03:06:15.033Z,15.70
2018-06-16T03:06:46.258Z,13.80
2018-06-16T03:07:17.424Z,14.10
2018-06-16T03:07:48.630Z,13.75
2018-06-16T03:08:19.800Z,13.50
2018-06-16T03:08:50.973Z,14.40
2018-06-16T03:09:22.198Z,13.15
2018-06-16T03:09:53.474Z,13.50
2018-06-16T03:10:24.667Z,13.98
2018-06-16T03:10:55.843Z,12.50
2018-06-16T03:11:27.075Z,13.45
2018-06-16T03:11:58.253Z,12.90
2018-06-16T03:12:29.454Z,13.53
2018-06-16T03:13:00.652Z,13.38
2018-06-16T03:13:31.820Z,13.72
2018-06-16T03:14:03.053Z,11.75
2018-06-16T03:14:34.233Z,12.75
2018-06-16T03:15:05.494Z,13.22
2018-06-16T03:15:36.720Z,12.18
2018-06-16T03:16:07.892Z,12.43
2018-06-16T03:16:39.164Z,12.53
2018-06-16T03:17:10.397Z,12.23
2018-06-16T03:17:41.576Z,12.58
2018-06-16T03:18:12.770Z,12.55
2018-06-16T03:18:43.999Z,12.15
2018-06-16T03:19:15.236Z,12.33
2018-06-16T03:19:46.465Z,11.57
2018-06-16T03:20:17.656Z,11.68
2018-06-16T03:20:48.839Z,11.88
2018-06-16T03:21:20.013Z,12.28
2018-06-16T03:21:51.283Z,11.83
2018-06-16T03:22:22.452Z,12.23
2018-06-16T03:22:53.626Z,12.00
2018-06-16T03:23:24.819Z,12.65
2018-06-16T03:23:56.052Z,12.13
2018-06-16T03:24:27.241Z,13.15
2018-06-16T03:24:58.456Z,11.75
2018-06-16T03:25:30.514Z,11.90
2018-06-16T03:26:01.845Z,11.60
2018-06-16T03:26:33.010Z,11.83
2018-06-16T03:27:04.217Z,12.28
2018-06-16T03:27:35.384Z,12.30
2018-06-16T03:28:06.600Z,11.93
2018-06-16T03:28:37.868Z,12.58
2018-06-16T03:29:09.049Z,12.00
2018-06-16T03:29:40.276Z,11.73
2018-06-16T03:30:11.502Z,11.60
2018-06-16T03:30:42.732Z,12.40
2018-06-16T03:31:13.964Z,11.50
2018-06-16T03:31:45.140Z,11.97
2018-06-16T03:32:16.361Z,13.00
2018-06-16T03:32:47.570Z,12.00
2018-06-16T03:33:18.785Z,11.78
2018-06-16T03:33:49.948Z,11.25
2018-06-16T03:34:21.131Z,12.73
2018-06-16T03:34:52.301Z,11.40
2018-06-16T03:35:23.529Z,13.50
2018-06-16T03:35:54.709Z,11.38
2018-06-16T03:36:25.978Z,11.48
2018-06-16T03:36:57.158Z,11.93
2018-06-16T03:37:28.324Z,11.40
2018-06-16T03:37:59.575Z,11.78
2018-06-16T03:38:30.793Z,12.30
2018-06-16T03:39:02.018Z,12.40
2018-06-16T03:39:33.240Z,11.55
2018-06-16T03:40:04.433Z,11.95
2018-06-16T03:40:35.623Z,12.25
2018-06-16T03:41:06.838Z,12.13
2018-06-16T03:41:38.018Z,12.23
2018-06-16T03:42:09.185Z,12.30
2018-06-16T03:42:40.369Z,12.33
2018-06-16T03:43:11.622Z,11.65
2018-06-16T03:43:42.890Z,11.38
2018-06-16T03:44:14.081Z,11.55
2018-06-16T03:44:45.250Z,12.07
2018-06-16T03:45:16.416Z,12.50
2018-06-16T03:45:47.695Z,10.98
2018-06-16T03:46:18.868Z,11.25
2018-06-16T03:46:50.089Z,10.85
2018-06-16T03:47:21.321Z,11.00
2018-06-16T03:47:52.554Z,11.05
2018-06-16T03:48:23.784Z,11.35
2018-06-16T03:48:54.992Z,10.82
2018-06-16T03:49:26.212Z,10.75
2018-06-16T03:49:57.441Z,10.18
2018-06-16T03:50:28.616Z,11.10
2018-06-16T03:50:59.788Z,10.35
2018-06-16T03:51:31.008Z,10.55
2018-06-16T03:52:02.188Z,10.82
2018-06-16T03:52:33.364Z,10.20
2018-06-16T03:53:04.532Z,11.12
2018-06-16T03:53:35.728Z,11.08
2018-06-16T03:54:06.936Z,9.45
2018-06-16T03:54:38.142Z,9.00
2018-06-16T03:55:09.371Z,9.93
2018-06-16T03:55:40.573Z,10.20
2018-06-16T03:56:11.752Z,10.55
2018-06-16T03:56:42.930Z,11.00
2018-06-16T03:57:14.432Z,10.13
2018-06-16T03:57:45.665Z,10.60
2018-06-16T03:58:16.848Z,10.85
2018-06-16T03:58:48.079Z,11.12
2018-06-16T03:59:19.288Z,10.95
2018-06-16T03:59:50.609Z,10.88
2018-06-16T04:00:21.794Z,12.00
2018-06-16T04:00:53.026Z,11.95
2018-06-16T04:01:24.212Z,10.88
2018-06-16T04:01:55.446Z,10.88
2018-06-16T04:02:27.226Z,10.32
2018-06-16T04:02:58.476Z,10.18
2018-06-16T04:03:29.669Z,10.48
2018-06-16T04:04:00.885Z,10.18
2018-06-16T04:04:32.153Z,10.40
2018-06-16T04:05:03.334Z,10.70
2018-06-16T04:05:34.562Z,10.30
2018-06-16T04:06:05.744Z,10.08
2018-06-16T04:06:36.931Z,11.03
2018-06-16T04:07:08.104Z,10.72
2018-06-16T04:07:40.328Z,10.63
2018-06-16T04:08:11.606Z,10.90
2018-06-16T04:08:42.836Z,10.15
2018-06-16T04:09:14.019Z,11.03
2018-06-16T04:09:45.232Z,10.63
2018-06-16T04:10:16.408Z,10.25
2018-06-16T04:10:47.689Z,10.15
2018-06-16T04:11:18.878Z,9.78
2018-06-16T04:11:50.051Z,10.55
2018-06-16T04:12:21.228Z,10.00
2018-06-16T04:12:52.404Z,10.10
2018-06-16T04:13:23.600Z,9.68
2018-06-16T04:13:54.851Z,9.55
2018-06-16T04:14:26.049Z,9.60
2018-06-16T04:14:57.240Z,9.80
2018-06-16T04:15:28.412Z,9.18
2018-06-16T04:15:59.705Z,10.05
2018-06-16T04:16:30.884Z,9.20
2018-06-16T04:17:02.114Z,9.58
2018-06-16T04:17:33.310Z,10.08
2018-06-16T04:18:04.491Z,9.40
2018-06-16T04:18:35.784Z,9.00
2018-06-16T04:19:06.964Z,9.90
2018-06-16T04:19:38.144Z,9.83
2018-06-16T04:20:09.379Z,9.80
2018-06-16T04:20:40.584Z,10.13
2018-06-16T04:21:11.827Z,9.68
2018-06-16T04:21:43.063Z,9.83
2018-06-16T04:22:14.313Z,9.63
2018-06-16T04:22:45.592Z,9.98
2018-06-16T04:23:16.828Z,9.73
2018-06-16T04:23:48.078Z,11.15
2018-06-16T04:24:19.254Z,11.00
2018-06-16T04:24:50.449Z,10.85
2018-06-16T04:25:21.629Z,10.50
2018-06-16T04:25:52.868Z,10.03
2018-06-16T04:26:24.056Z,10.60
2018-06-16T04:26:55.242Z,10.88
2018-06-16T04:27:26.424Z,10.63
2018-06-16T04:27:57.641Z,10.30
2018-06-16T04:28:28.813Z,10.40
2018-06-16T04:29:00.036Z,10.38
2018-06-16T04:29:31.233Z,10.55
2018-06-16T04:30:02.416Z,10.55
2018-06-16T04:30:33.596Z,10.18
2018-06-16T04:31:04.801Z,9.63
2018-06-16T04:31:36.003Z,10.35
2018-06-16T04:32:07.237Z,10.40
2018-06-16T04:32:38.424Z,10.45
2018-06-16T04:33:09.678Z,10.30
2018-06-16T04:33:40.860Z,10.53
2018-06-16T04:34:12.061Z,9.83
2018-06-16T04:34:43.297Z,9.70
2018-06-16T04:35:14.508Z,9.53
2018-06-16T04:35:45.744Z,9.55
2018-06-16T04:36:16.992Z,8.80
2018-06-16T04:36:48.180Z,9.00
2018-06-16T04:37:19.408Z,9.40
2018-06-16T04:37:50.582Z,9.98
2018-06-16T04:38:21.753Z,10.43
2018-06-16T04:38:52.932Z,10.60
2018-06-16T04:39:24.112Z,10.58
2018-06-16T04:39:55.288Z,10.38
2018-06-16T04:40:26.456Z,10.68
2018-06-16T04:40:57.675Z,10.58
2018-06-16T04:41:28.921Z,10.40
2018-06-16T04:42:00.117Z,10.65
2018-06-16T04:42:31.349Z,10.38
2018-06-16T04:43:02.546Z,10.95
2018-06-16T04:43:33.773Z,10.58
2018-06-16T04:44:04.993Z,11.22
2018-06-16T04:44:36.180Z,10.10
2018-06-16T04:45:07.409Z,10.32
2018-06-16T04:45:38.728Z,10.80
2018-06-16T04:46:09.904Z,11.18
2018-06-16T04:46:41.100Z,10.45
2018-06-16T04:47:12.284Z,10.18
2018-06-16T04:47:43.505Z,9.88
2018-06-16T04:48:14.741Z,10.13
2018-06-16T04:48:45.958Z,10.68
2018-06-16T04:49:17.152Z,10.40
2018-06-16T04:49:48.385Z,10.13
2018-06-16T04:50:19.635Z,10.23
2018-06-16T04:50:50.861Z,10.20
2018-06-16T04:51:22.108Z,10.53
2018-06-16T04:51:53.342Z,10.25
2018-06-16T04:52:24.531Z,9.93
2018-06-16T04:52:55.767Z,9.85
2018-06-16T04:53:27.024Z,10.63
2018-06-16T04:53:58.206Z,10.43
2018-06-16T04:54:29.430Z,11.48
2018-06-16T04:55:00.618Z,10.63
2018-06-16T04:55:31.886Z,10.20
2018-06-16T04:56:03.118Z,9.18
2018-06-16T04:56:34.365Z,10.00
2018-06-16T04:57:05.566Z,9.85
2018-06-16T04:57:36.753Z,9.98
2018-06-16T04:58:07.992Z,9.40
2018-06-16T04:58:39.176Z,9.30
2018-06-16T04:59:10.854Z,10.05
2018-06-16T04:59:42.036Z,9.83
2018-06-16T05:00:13.309Z,9.58
2018-06-16T05:00:44.494Z,10.48
2018-06-16T05:01:15.677Z,9.73
2018-06-16T05:01:46.852Z,9.53
2018-06-16T05:02:18.032Z,9.75
2018-06-16T05:02:49.214Z,9.63
2018-06-16T05:03:20.392Z,9.88
2018-06-16T05:03:51.589Z,9.83
2018-06-16T05:04:22.820Z,10.08
2018-06-16T05:04:54.065Z,9.53
2018-06-16T05:05:25.353Z,10.30
2018-06-16T05:05:56.548Z,10.82
2018-06-16T05:06:27.768Z,10.53
2018-06-16T05:06:58.952Z,10.63
2018-06-16T05:07:30.188Z,10.43
2018-06-16T05:08:01.381Z,10.13
2018-06-16T05:08:32.631Z,10.07
2018-06-16T05:09:03.861Z,10.50
2018-06-16T05:09:35.044Z,10.50
2018-06-16T05:10:06.224Z,11.00
2018-06-16T05:10:37.416Z,10.85
2018-06-16T05:11:08.700Z,11.45
2018-06-16T05:11:39.963Z,11.80
2018-06-16T05:12:11.193Z,11.10
2018-06-16T05:12:42.430Z,11.53
2018-06-16T05:13:13.613Z,11.57
2018-06-16T05:13:44.792Z,11.08
2018-06-16T05:14:16.052Z,11.63
2018-06-16T05:14:47.250Z,11.93
2018-06-16T05:15:18.421Z,11.18
2018-06-16T05:15:49.602Z,10.75
2018-06-16T05:16:20.781Z,10.65
2018-06-16T05:16:52.069Z,11.25
2018-06-16T05:17:23.228Z,11.38
2018-06-16T05:17:54.416Z,11.33
2018-06-16T05:18:25.597Z,10.72
2018-06-16T05:18:56.786Z,10.30
2018-06-16T05:19:28.024Z,11.15
2018-06-16T05:19:59.268Z,11.50
2018-06-16T05:20:30.514Z,11.43
2018-06-16T05:21:01.697Z,11.87
2018-06-16T05:21:32.893Z,11.45
2018-06-16T05:22:04.123Z,11.03
2018-06-16T05:22:35.304Z,11.23
2018-06-16T05:23:06.476Z,10.80
2018-06-16T05:23:37.655Z,11.15
2018-06-16T05:24:08.855Z,10.93
2018-06-16T05:24:40.092Z,10.70
2018-06-16T05:25:11.264Z,10.17
2018-06-16T05:25:42.494Z,10.50
2018-06-16T05:26:13.721Z,9.73
2018-06-16T05:26:44.952Z,10.30
2018-06-16T05:27:16.177Z,10.10
2018-06-16T05:27:47.365Z,9.37
2018-06-16T05:28:18.574Z,8.97
2018-06-16T05:28:49.756Z,9.17
2018-06-16T05:29:20.925Z,9.43
2018-06-16T05:29:52.120Z,9.30
2018-06-16T05:30:23.297Z,8.57
2018-06-16T05:30:54.480Z,8.63
2018-06-16T05:31:25.704Z,8.83
2018-06-16T05:31:56.932Z,8.93
2018-06-16T05:32:28.124Z,8.93
2018-06-16T05:32:59.300Z,9.17
2018-06-16T05:33:30.472Z,9.27
2018-06-16T05:34:01.646Z,8.57
2018-06-16T05:34:32.823Z,9.17
2018-06-16T05:35:04.044Z,8.83
2018-06-16T05:35:35.234Z,9.33
2018-06-16T05:36:06.413Z,9.10
2018-06-16T05:36:37.594Z,8.80
2018-06-16T05:37:08.810Z,8.67
2018-06-16T05:37:40.037Z,8.53
2018-06-16T05:38:11.215Z,9.20
2018-06-16T05:38:42.388Z,8.27
2018-06-16T05:39:13.576Z,9.07
2018-06-16T05:39:44.752Z,8.73
2018-06-16T05:40:15.946Z,9.13
2018-06-16T05:40:47.120Z,8.80
2018-06-16T05:41:18.343Z,9.50
2018-06-16T05:41:49.584Z,9.33
2018-06-16T05:42:20.876Z,8.90
2018-06-16T05:42:52.117Z,9.30
2018-06-16T05:43:23.345Z,9.50
2018-06-16T05:43:54.588Z,9.80
2018-06-16T05:44:25.845Z,9.37
2018-06-16T05:44:57.056Z,9.07
2018-06-16T05:45:28.241Z,8.87
2018-06-16T05:45:59.407Z,8.40
2018-06-16T05:46:30.630Z,8.60
2018-06-16T05:47:01.829Z,8.50
2018-06-16T05:47:33.125Z,8.90
2018-06-16T05:48:04.336Z,8.30
2018-06-16T05:48:35.560Z,8.77
2018-06-16T05:49:06.729Z,8.90
2018-06-16T05:49:37.897Z,8.83
2018-06-16T05:50:09.197Z,9.03
2018-06-16T05:50:40.385Z,8.53
2018-06-16T05:51:11.607Z,8.47
2018-06-16T05:51:42.793Z,8.90
2018-06-16T05:52:13.978Z,8.70
2018-06-16T05:52:45.193Z,8.50
2018-06-16T05:53:16.366Z,8.73
2018-06-16T05:53:47.580Z,8.53
2018-06-16T05:54:18.784Z,8.80
2018-06-16T05:54:49.972Z,8.80
2018-06-16T05:55:21.198Z,8.60
2018-06-16T05:55:52.376Z,8.43
2018-06-16T05:56:23.557Z,8.87
2018-06-16T05:56:54.742Z,8.47
2018-06-16T05:57:25.929Z,7.93
2018-06-16T05:57:57.191Z,8.13
2018-06-16T05:58:28.362Z,8.33
2018-06-16T05:58:59.597Z,8.50
2018-06-16T05:59:30.829Z,7.73
2018-06-16T06:00:02.070Z,8.77
2018-06-16T06:00:33.285Z,7.80
2018-06-16T06:01:04.456Z,7.97
2018-06-16T06:01:35.636Z,8.53
2018-06-16T06:02:06.872Z,8.17
2018-06-16T06:02:38.052Z,8.50
2018-06-16T06:03:09.238Z,8.27
2018-06-16T06:03:40.468Z,7.90
2018-06-16T06:04:11.741Z,8.30
2018-06-16T06:04:42.985Z,8.27
2018-06-16T06:05:14.177Z,8.40
2018-06-16T06:05:45.368Z,8.80
2018-06-16T06:06:16.601Z,8.77
2018-06-16T06:06:47.913Z,8.30
2018-06-16T06:07:19.154Z,8.23
2018-06-16T06:07:50.367Z,9.13
2018-06-16T06:08:21.574Z,7.70
2018-06-16T06:08:52.756Z,8.27
2018-06-16T06:09:23.937Z,8.07
2018-06-16T06:09:55.165Z,8.10
2018-06-16T06:10:26.607Z,8.23
2018-06-16T06:10:57.823Z,8.13
2018-06-16T06:11:29.040Z,8.73
2018-06-16T06:12:00.281Z,8.73
2018-06-16T06:12:31.464Z,8.67
2018-06-16T06:13:02.682Z,8.67
2018-06-16T06:13:33.877Z,8.50
2018-06-16T06:14:05.055Z,9.00
2018-06-16T06:14:36.230Z,8.30
2018-06-16T06:15:07.414Z,8.00
2018-06-16T06:15:38.600Z,8.73
2018-06-16T06:16:09.825Z,8.77
2018-06-16T06:16:41.029Z,8.67
2018-06-16T06:17:12.308Z,8.50
2018-06-16T06:17:43.546Z,7.97
2018-06-16T06:18:14.741Z,9.33
2018-06-16T06:18:46.012Z,8.87
2018-06-16T06:19:17.221Z,8.53
2018-06-16T06:19:48.402Z,8.10
2018-06-16T06:20:19.580Z,8.70
2018-06-16T06:20:50.757Z,8.43
2018-06-16T06:21:21.981Z,8.80
2018-06-16T06:21:53.217Z,8.43
2018-06-16T06:22:24.492Z,9.03
2018-06-16T06:22:55.726Z,8.43
2018-06-16T06:23:26.919Z,8.93
2018-06-16T06:23:58.105Z,8.53
2018-06-16T06:24:29.341Z,9.33
2018-06-16T06:25:00.528Z,8.60
2018-06-16T06:25:31.713Z,9.73
2018-06-16T06:26:02.901Z,9.03
2018-06-16T06:26:34.141Z,8.53
2018-06-16T06:27:05.378Z,8.73
2018-06-16T06:27:36.617Z,8.03
2018-06-16T06:28:07.863Z,8.37
2018-06-16T06:28:39.054Z,9.03
2018-06-16T06:29:10.302Z,8.43
2018-06-16T06:29:41.792Z,9.17
2018-06-16T06:30:13.028Z,8.53
2018-06-16T06:30:44.321Z,9.17
2018-06-16T06:31:15.554Z,8.70
2018-06-16T06:31:46.741Z,8.50
2018-06-16T06:32:17.994Z,8.73
2018-06-16T06:32:49.216Z,9.17
2018-06-16T06:33:20.400Z,8.93
2018-06-16T06:33:51.637Z,8.20
2018-06-16T06:34:22.826Z,9.37
2018-06-16T06:34:54.052Z,8.67
2018-06-16T06:35:25.234Z,9.00
2018-06-16T06:35:56.440Z,9.63
2018-06-16T06:36:27.616Z,9.27
2018-06-16T06:36:58.860Z,9.53
2018-06-16T06:37:30.096Z,9.10
2018-06-16T06:38:01.334Z,9.60
2018-06-16T06:38:32.580Z,8.40
2018-06-16T06:39:03.773Z,8.90
2018-06-16T06:39:34.953Z,8.57
2018-06-16T06:40:06.227Z,8.30
2018-06-16T06:40:37.412Z,7.87
2018-06-16T06:41:08.609Z,7.83
2018-06-16T06:41:39.793Z,8.13
2018-06-16T06:42:10.968Z,8.10
2018-06-16T06:42:42.165Z,7.70
2018-06-16T06:43:13.352Z,8.07
2018-06-16T06:43:44.532Z,8.80
2018-06-16T06:44:15.760Z,8.23
2018-06-16T06:44:46.957Z,8.00
2018-06-16T06:45:18.221Z,8.00